Time;durP1;ratioP1;P1;durP2;ratioP2;P2;SDS_P1;SDS_P2;PMS_P1;PMS_P2;Temp;Humidity;BMP_temperature;BMP_pressure;BME280_temperature;BME280_humidity;BME280_pressure;Samples;Min_cycle;Max_cycle;Signal;HPM_P1;HPM_P2
2023/06/24 00:00:20;;;;;;;5.83;4.13;;;22.20;1.00;;;;;;5074899;28;20171;-79
2023/06/24 00:02:50;;;;;;;5.63;3.63;;;22.10;1.00;;;;;;5075095;28;20187;-81
2023/06/24 00:05:21;;;;;;;4.70;3.87;;;22.10;1.00;;;;;;5057047;28;20169;-80
2023/06/24 00:07:48;;;;;;;4.33;3.70;;;22.10;1.00;;;;;;5052323;28;20235;-82
2023/06/24 00:10:14;;;;;;;5.60;3.67;;;22.10;1.00;;;;;;5040369;28;20206;-84
2023/06/24 00:12:41;;;;;;;4.90;3.50;;;22.10;1.00;;;;;;5058050;28;20226;-84
2023/06/24 00:15:11;;;;;;;4.70;3.80;;;21.80;1.00;;;;;;5059386;28;20176;-85
2023/06/24 00:17:37;;;;;;;5.23;3.43;;;21.70;1.00;;;;;;5046050;28;20211;-83
2023/06/24 00:20:05;;;;;;;6.90;3.80;;;21.90;1.00;;;;;;5070281;28;20161;-80
2023/06/24 00:22:31;;;;;;;5.20;3.30;;;21.90;1.00;;;;;;5077944;28;20168;-80
2023/06/24 00:25:00;;;;;;;5.67;3.53;;;21.80;1.00;;;;;;5077872;28;20218;-82
2023/06/24 00:27:26;;;;;;;4.13;3.23;;;21.70;1.00;;;;;;5060580;28;20267;-82
2023/06/24 00:29:55;;;;;;;4.37;3.60;;;21.60;1.00;;;;;;5074101;28;20176;-87
2023/06/24 00:32:23;;;;;;;6.17;3.83;;;21.70;1.00;;;;;;5066748;28;20168;-83
2023/06/24 00:35:07;;;;;;;4.87;3.37;;;21.70;1.00;;;;;;5060649;28;20177;-87
2023/06/24 00:37:36;;;;;;;4.50;3.20;;;21.70;1.00;;;;;;5072099;28;20325;-85
2023/06/24 00:40:15;;;;;;;5.40;4.00;;;21.60;1.00;;;;;;5050700;28;20672;-86
2023/06/24 00:42:44;;;;;;;5.40;3.47;;;21.60;1.00;;;;;;5037960;28;20658;-85
2023/06/24 00:45:11;;;;;;;6.03;3.80;;;21.60;1.00;;;;;;5055638;28;20218;-85
2023/06/24 00:47:41;;;;;;;6.53;3.90;;;21.60;1.00;;;;;;5037075;28;20651;-86
2023/06/24 00:50:11;;;;;;;6.30;3.90;;;21.50;1.00;;;;;;5037544;28;20706;-84
2023/06/24 00:52:42;;;;;;;5.27;3.97;;;21.40;1.00;;;;;;5034729;28;20640;-83
2023/06/24 00:55:09;;;;;;;5.63;4.10;;;21.30;1.00;;;;;;5034107;28;20212;-86
2023/06/24 00:57:37;;;;;;;5.30;3.70;;;21.20;1.00;;;;;;5053217;28;20215;-84
2023/06/24 01:00:09;;;;;;;8.80;5.20;;;21.10;1.00;;;;;;5055525;28;20156;-84
2023/06/24 01:02:37;;;;;;;6.40;4.33;;;20.90;1.00;;;;;;5037632;28;20525;-85
2023/06/24 01:05:06;;;;;;;6.03;4.33;;;20.80;1.00;;;;;;5037248;28;20190;-86
2023/06/24 01:07:35;;;;;;;6.17;3.83;;;20.80;1.00;;;;;;5055539;28;20176;-84
2023/06/24 01:10:02;;;;;;;7.73;5.23;;;20.70;1.00;;;;;;5038151;28;20601;-85
2023/06/24 01:12:28;;;;;;;6.63;5.33;;;20.60;1.00;;;;;;5057574;28;20171;-83
2023/06/24 01:14:54;;;;;;;6.93;5.23;;;20.50;1.00;;;;;;5059532;28;20178;-84
2023/06/24 01:17:30;;;;;;;7.50;5.63;;;20.50;5.80;;;;;;5040744;28;20322;-84
2023/06/24 01:20:27;;;;;;;9.10;5.73;;;20.30;13.30;;;;;;5061579;28;20164;-86
2023/06/24 01:23:07;;;;;;;7.70;5.50;;;20.20;21.20;;;;;;5063134;28;20169;-84
2023/06/24 01:26:03;;;;;;;7.13;5.83;;;20.10;25.40;;;;;;5064814;28;20170;-85
2023/06/24 01:28:59;;;;;;;7.97;5.67;;;20.10;25.60;;;;;;5073186;28;20191;-84
2023/06/24 01:31:50;;;;;;;6.57;5.23;;;20.00;27.70;;;;;;5072316;28;20238;-83
2023/06/24 01:34:24;;;;;;;8.33;5.70;;;20.00;28.30;;;;;;5070942;28;20187;-83
2023/06/24 01:37:02;;;;;;;10.23;5.77;;;20.00;29.00;;;;;;5070322;28;20205;-80
2023/06/24 01:39:31;;;;;;;7.53;5.57;;;19.90;28.70;;;;;;5079535;28;20173;-80
2023/06/24 01:42:07;;;;;;;8.27;5.90;;;19.90;30.00;;;;;;5078029;28;20237;-85
2023/06/24 01:44:35;;;;;;;8.23;6.17;;;19.80;30.90;;;;;;5058421;28;20177;-83
2023/06/24 01:47:04;;;;;;;9.93;6.23;;;19.80;33.20;;;;;;5074199;28;20189;-83
2023/06/24 01:49:33;;;;;;;6.57;5.47;;;19.70;35.50;;;;;;5073237;28;20157;-83
2023/06/24 01:52:00;;;;;;;8.83;6.03;;;19.70;38.20;;;;;;5057964;28;20192;-84
2023/06/24 01:54:28;;;;;;;9.80;6.00;;;19.60;37.30;;;;;;5074689;28;20217;-86
2023/06/24 01:56:57;;;;;;;8.73;5.83;;;19.80;37.10;;;;;;5072267;28;20201;-86
2023/06/24 01:59:23;;;;;;;8.80;6.10;;;19.80;37.00;;;;;;5057393;28;20171;-84
2023/06/24 02:01:51;;;;;;;6.80;5.50;;;19.90;34.60;;;;;;5072742;28;20215;-85
2023/06/24 02:04:18;;;;;;;8.77;6.33;;;19.90;34.30;;;;;;5070276;28;20168;-84
2023/06/24 02:06:46;;;;;;;7.30;6.27;;;19.90;34.20;;;;;;5055072;28;20177;-86
2023/06/24 02:09:12;;;;;;;7.50;6.20;;;19.80;32.40;;;;;;5071726;28;20153;-85
2023/06/24 02:11:39;;;;;;;7.20;6.07;;;19.80;33.60;;;;;;5053939;28;20645;-84
2023/06/24 02:14:07;;;;;;;7.47;6.00;;;19.70;34.10;;;;;;5072828;28;20240;-86
2023/06/24 02:16:35;;;;;;;9.17;6.20;;;19.70;31.50;;;;;;5062295;28;20200;-85
2023/06/24 02:19:06;;;;;;;8.13;6.47;;;19.40;35.00;;;;;;5040850;28;20201;-84
2023/06/24 02:21:35;;;;;;;7.23;5.97;;;19.60;33.50;;;;;;5039966;28;20242;-85
2023/06/24 02:24:02;;;;;;;7.33;5.90;;;19.60;35.40;;;;;;5057387;28;20168;-85
2023/06/24 02:26:31;;;;;;;9.63;5.97;;;19.50;36.50;;;;;;5040023;28;20197;-85
2023/06/24 02:28:58;;;;;;;8.33;5.70;;;19.50;33.00;;;;;;5057577;28;20189;-86
2023/06/24 02:31:23;;;;;;;7.43;5.80;;;19.30;31.80;;;;;;5039421;28;20591;-86
2023/06/24 02:33:49;;;;;;;8.13;5.80;;;19.20;32.40;;;;;;5056801;28;20248;-85
2023/06/24 02:36:18;;;;;;;6.57;5.33;;;19.10;31.70;;;;;;5039009;28;20300;-86
2023/06/24 02:38:44;;;;;;;7.33;5.70;;;19.10;30.20;;;;;;5041303;28;20191;-85
2023/06/24 02:41:09;;;;;;;7.07;5.10;;;19.00;29.80;;;;;;5040232;28;20641;-86
2023/06/24 02:43:36;;;;;;;8.50;5.50;;;18.90;31.80;;;;;;5050571;28;20186;-82
2023/06/24 02:46:05;;;;;;;8.57;5.70;;;18.90;33.60;;;;;;5080034;28;20161;-82
2023/06/24 02:48:34;;;;;;;6.10;5.43;;;19.00;30.10;;;;;;5079905;28;20168;-84
2023/06/24 02:51:03;;;;;;;6.60;5.50;;;19.00;29.60;;;;;;5061119;28;20157;-84
2023/06/24 02:53:30;;;;;;;7.33;5.30;;;19.10;29.90;;;;;;5067034;28;20179;-84
2023/06/24 02:55:59;;;;;;;7.50;5.47;;;19.00;29.50;;;;;;5051070;28;20206;-85
2023/06/24 02:58:32;;;;;;;8.03;5.50;;;18.90;32.10;;;;;;5057555;28;20230;-85
2023/06/24 03:01:03;;;;;;;7.37;5.70;;;19.00;30.90;;;;;;5057032;28;20174;-85
2023/06/24 03:03:31;;;;;;;8.10;5.63;;;19.00;31.00;;;;;;5022254;28;20196;-85
2023/06/24 03:06:02;;;;;;;7.03;5.27;;;18.90;35.60;;;;;;5039649;28;20241;-84
2023/06/24 03:08:29;;;;;;;6.67;5.83;;;18.80;38.40;;;;;;5062360;28;20187;-82
2023/06/24 03:10:58;;;;;;;6.90;5.70;;;18.80;41.50;;;;;;5062428;28;20287;-80
2023/06/24 03:13:24;;;;;;;7.43;5.60;;;18.80;43.00;;;;;;5078158;28;20155;-83
2023/06/24 03:15:50;;;;;;;6.60;5.90;;;18.80;43.20;;;;;;5057658;28;20177;-82
2023/06/24 03:18:20;;;;;;;6.47;5.23;;;18.70;45.50;;;;;;5061903;28;20173;-83
2023/06/24 03:21:02;;;;;;;7.50;5.43;;;18.50;49.40;;;;;;5067688;28;20182;-85
2023/06/24 03:23:27;;;;;;;7.93;5.60;;;18.40;51.00;;;;;;5038229;28;20195;-83
2023/06/24 03:25:54;;;;;;;8.40;6.10;;;18.30;53.50;;;;;;5038093;28;20534;-84
2023/06/24 03:28:21;;;;;;;9.83;6.00;;;18.30;55.50;;;;;;5056003;28;20201;-85
2023/06/24 03:30:47;;;;;;;9.27;6.10;;;18.30;55.10;;;;;;5038113;28;20169;-86
2023/06/24 03:33:16;;;;;;;9.30;5.90;;;18.30;56.30;;;;;;5057207;28;20222;-83
2023/06/24 03:35:42;;;;;;;11.67;6.10;;;18.40;54.80;;;;;;5054626;28;20195;-85
2023/06/24 03:38:08;;;;;;;7.37;5.50;;;18.30;54.30;;;;;;5056462;28;20616;-84
2023/06/24 03:40:34;;;;;;;10.13;5.70;;;18.20;54.70;;;;;;5055016;28;20249;-83
2023/06/24 03:43:01;;;;;;;7.97;6.10;;;18.30;54.50;;;;;;5037265;28;20170;-84
2023/06/24 03:45:26;;;;;;;6.97;5.70;;;18.20;55.30;;;;;;5057069;28;20227;-83
2023/06/24 03:47:52;;;;;;;10.90;6.87;;;18.20;55.50;;;;;;5055530;28;20190;-83
2023/06/24 03:50:18;;;;;;;9.13;5.90;;;18.20;55.00;;;;;;5055875;28;20174;-85
2023/06/24 03:52:44;;;;;;;8.23;6.33;;;18.30;53.70;;;;;;5037720;28;20219;-86
2023/06/24 03:55:10;;;;;;;10.63;6.17;;;18.30;53.50;;;;;;5057783;28;20199;-86
2023/06/24 03:57:37;;;;;;;7.67;6.00;;;18.20;54.60;;;;;;5056265;28;20739;-85
2023/06/24 04:00:12;;;;;;;7.97;5.67;;;18.20;56.70;;;;;;5061163;28;20171;-86
2023/06/24 04:02:38;;;;;;;10.30;6.20;;;18.10;57.50;;;;;;5057690;28;20170;-85
2023/06/24 04:05:06;;;;;;;9.33;5.87;;;18.20;58.10;;;;;;5057143;28;20258;-85
2023/06/24 04:07:32;;;;;;;9.47;6.57;;;18.30;57.00;;;;;;5055976;28;20173;-85
2023/06/24 04:09:57;;;;;;;7.37;6.00;;;18.30;54.50;;;;;;5055205;28;20200;-85
2023/06/24 04:12:24;;;;;;;8.43;5.87;;;18.30;52.60;;;;;;5054105;28;20183;-86
2023/06/24 04:14:50;;;;;;;7.90;5.80;;;18.30;52.80;;;;;;5055531;28;20725;-85
2023/06/24 04:17:15;;;;;;;8.40;6.20;;;18.30;51.90;;;;;;5054947;28;20286;-85
2023/06/24 04:19:41;;;;;;;7.77;5.83;;;18.30;50.30;;;;;;5059192;28;20168;-86
2023/06/24 04:22:39;;;;;;;12.23;6.30;;;18.30;51.50;;;;;;5072301;28;20173;-84
2023/06/24 04:28:27;;;;;;;7.23;5.50;;;18.50;45.00;;;;;;5055496;28;20232;-84
2023/06/24 04:30:54;;;;;;;10.20;5.97;;;18.60;43.70;;;;;;5037138;28;20592;-84
2023/06/24 04:33:20;;;;;;;9.30;5.63;;;18.70;40.30;;;;;;5036874;28;20662;-86
2023/06/24 04:35:46;;;;;;;8.50;6.00;;;18.70;40.00;;;;;;5036775;28;20182;-85
2023/06/24 04:38:17;;;;;;;9.63;6.33;;;18.70;39.30;;;;;;5036932;28;20203;-86
2023/06/24 04:40:43;;;;;;;9.47;7.00;;;18.70;38.10;;;;;;5055543;28;20179;-85
2023/06/24 04:43:09;;;;;;;7.87;5.63;;;18.80;37.50;;;;;;5054656;28;20158;-86
2023/06/24 04:45:35;;;;;;;10.10;6.17;;;18.80;35.00;;;;;;5055554;28;20203;-86
2023/06/24 04:48:01;;;;;;;7.23;5.17;;;18.80;34.60;;;;;;5044634;28;20190;-82
2023/06/24 04:50:26;;;;;;;9.70;5.83;;;18.80;35.30;;;;;;5063774;28;20168;-83
2023/06/24 04:52:54;;;;;;;8.53;6.23;;;18.80;34.60;;;;;;5063153;28;20194;-85
2023/06/24 04:55:21;;;;;;;8.93;5.63;;;18.80;33.90;;;;;;5042756;28;20188;-85
2023/06/24 04:57:48;;;;;;;7.60;5.47;;;18.80;35.00;;;;;;5060457;28;20229;-86
2023/06/24 05:00:14;;;;;;;10.17;6.50;;;18.80;32.90;;;;;;5061388;28;20230;-86
2023/06/24 05:02:39;;;;;;;8.13;6.23;;;18.80;31.20;;;;;;5060875;28;20180;-85
2023/06/24 05:05:05;;;;;;;8.13;5.73;;;18.80;30.60;;;;;;5042935;28;20639;-84
2023/06/24 05:07:31;;;;;;;10.20;5.87;;;19.00;27.80;;;;;;5060494;28;20172;-86
2023/06/24 05:09:56;;;;;;;7.77;5.30;;;19.20;25.80;;;;;;5042976;28;20274;-83
2023/06/24 05:12:22;;;;;;;8.17;6.30;;;19.20;18.30;;;;;;5042943;28;20177;-84
2023/06/24 05:14:52;;;;;;;9.17;5.17;;;19.10;20.40;;;;;;5043379;28;20171;-86
2023/06/24 05:17:18;;;;;;;8.57;5.50;;;19.00;22.30;;;;;;5061321;28;20257;-86
2023/06/24 05:19:44;;;;;;;9.40;5.70;;;19.00;22.40;;;;;;5060699;28;20168;-85
2023/06/24 05:22:10;;;;;;;7.70;5.70;;;19.10;22.60;;;;;;5043049;28;20631;-84
2023/06/24 05:24:35;;;;;;;8.03;5.53;;;19.30;14.10;;;;;;5060977;28;20196;-82
2023/06/24 05:27:05;;;;;;;7.60;5.27;;;19.40;12.40;;;;;;5061869;28;20686;-85
2023/06/24 05:29:32;;;;;;;6.90;5.37;;;19.40;11.40;;;;;;5042741;28;20220;-86
2023/06/24 05:31:58;;;;;;;7.97;5.23;;;19.40;2.10;;;;;;5061644;28;20258;-84
2023/06/24 05:34:24;;;;;;;7.77;5.00;;;19.50;6.60;;;;;;5043309;28;20187;-83
2023/06/24 05:36:50;;;;;;;7.43;5.23;;;19.40;7.00;;;;;;5042822;28;20215;-84
2023/06/24 05:39:16;;;;;;;8.87;5.27;;;19.50;2.80;;;;;;5043556;28;20183;-83
2023/06/24 05:41:43;;;;;;;6.83;5.20;;;19.60;1.00;;;;;;5060585;28;20160;-85
2023/06/24 05:44:12;;;;;;;8.80;5.33;;;19.50;3.90;;;;;;5061168;28;20207;-88
2023/06/24 05:46:38;;;;;;;7.17;5.07;;;19.60;1.00;;;;;;5060890;28;20215;-86
2023/06/24 05:49:03;;;;;;;6.97;4.93;;;19.60;1.00;;;;;;5042584;28;20631;-86
2023/06/24 05:51:29;;;;;;;7.03;4.90;;;19.60;1.00;;;;;;5042619;28;20179;-84
2023/06/24 05:53:55;;;;;;;7.83;4.93;;;19.60;1.00;;;;;;5043036;28;20188;-87
2023/06/24 05:56:22;;;;;;;5.90;4.70;;;19.60;1.00;;;;;;5042543;28;20242;-84
2023/06/24 05:58:49;;;;;;;6.23;4.93;;;19.70;1.00;;;;;;5058677;28;20173;-85
2023/06/24 06:01:15;;;;;;;6.83;4.70;;;19.70;1.00;;;;;;5057089;28;20167;-87
2023/06/24 06:03:40;;;;;;;8.00;5.30;;;19.80;1.00;;;;;;5058447;28;20193;-85
2023/06/24 06:06:07;;;;;;;5.97;5.00;;;19.80;1.00;;;;;;5057231;28;20252;-85
2023/06/24 06:08:33;;;;;;;7.20;4.87;;;19.70;1.00;;;;;;5063162;28;20169;-84
2023/06/24 06:11:02;;;;;;;5.80;4.20;;;19.60;1.00;;;;;;5065765;28;20175;-83
2023/06/24 06:13:28;;;;;;;7.60;4.60;;;19.90;1.00;;;;;;5050330;28;20169;-85
2023/06/24 06:15:54;;;;;;;8.40;4.67;;;19.80;1.00;;;;;;5039169;28;20609;-85
2023/06/24 06:18:19;;;;;;;5.60;4.40;;;19.90;1.00;;;;;;5056632;28;20218;-86
2023/06/24 06:20:45;;;;;;;8.53;4.30;;;20.00;1.00;;;;;;5038971;28;20280;-84
2023/06/24 06:23:11;;;;;;;6.33;4.60;;;20.00;1.00;;;;;;5039309;28;20621;-84
2023/06/24 06:25:38;;;;;;;4.50;3.97;;;20.00;1.00;;;;;;5058529;28;20186;-84
2023/06/24 06:28:04;;;;;;;5.77;4.30;;;20.00;1.00;;;;;;5056623;28;20543;-83
2023/06/24 06:30:29;;;;;;;4.90;4.10;;;20.10;1.00;;;;;;5069422;28;20161;-87
2023/06/24 06:32:55;;;;;;;5.83;4.53;;;20.20;1.00;;;;;;5079829;28;20181;-83
2023/06/24 06:35:21;;;;;;;7.37;4.30;;;20.20;1.00;;;;;;5078056;28;20199;-84
2023/06/24 06:37:51;;;;;;;7.00;4.10;;;20.20;1.00;;;;;;5050373;28;20216;-85
2023/06/24 06:40:20;;;;;;;5.70;4.03;;;20.30;1.00;;;;;;5040791;28;20186;-83
2023/06/24 06:43:12;;;;;;;6.87;4.60;;;20.50;1.00;;;;;;5057562;28;20240;-85
2023/06/24 06:45:38;;;;;;;6.47;4.20;;;20.60;1.00;;;;;;5057483;28;20173;-84
2023/06/24 06:48:07;;;;;;;6.03;4.37;;;20.60;1.00;;;;;;5056520;28;20165;-85
2023/06/24 06:50:33;;;;;;;7.20;4.47;;;20.70;1.00;;;;;;5041609;28;20545;-86
2023/06/24 06:53:00;;;;;;;4.80;4.23;;;20.80;1.00;;;;;;5062745;28;20172;-84
2023/06/24 06:55:26;;;;;;;7.93;5.20;;;20.90;1.00;;;;;;5057675;28;20198;-84
2023/06/24 06:57:53;;;;;;;5.97;4.30;;;21.00;1.00;;;;;;5058460;28;20213;-84
2023/06/24 07:00:19;;;;;;;5.03;4.00;;;21.20;1.00;;;;;;5059431;28;20255;-85
2023/06/24 07:02:45;;;;;;;4.70;4.00;;;21.20;1.00;;;;;;5049496;28;20188;-82
2023/06/24 07:05:11;;;;;;;4.97;3.80;;;21.30;1.00;;;;;;5047383;28;20165;-85
2023/06/24 07:07:40;;;;;;;5.57;3.83;;;21.30;1.00;;;;;;5050355;28;20173;-86
2023/06/24 07:10:06;;;;;;;5.40;3.90;;;21.40;1.00;;;;;;5048798;28;20174;-84
2023/06/24 07:12:32;;;;;;;5.37;4.30;;;21.60;1.00;;;;;;5051362;28;20187;-87
2023/06/24 07:14:57;;;;;;;6.50;3.77;;;21.50;1.00;;;;;;5068525;28;20231;-83
2023/06/24 07:17:23;;;;;;;4.97;3.70;;;21.70;1.00;;;;;;5049428;28;20699;-85
2023/06/24 07:19:49;;;;;;;5.83;3.87;;;21.70;1.00;;;;;;5066525;28;20178;-86
2023/06/24 07:22:15;;;;;;;5.07;3.70;;;21.90;1.00;;;;;;5041807;28;20945;-86
2023/06/24 07:24:41;;;;;;;5.20;3.10;;;21.90;1.00;;;;;;5055279;28;20174;-80
2023/06/24 07:27:07;;;;;;;4.67;3.40;;;22.00;1.00;;;;;;5053917;28;20185;-79
2023/06/24 07:29:33;;;;;;;5.90;3.90;;;21.90;1.00;;;;;;5038137;28;20173;-82
2023/06/24 07:31:59;;;;;;;5.90;3.30;;;21.90;1.00;;;;;;5058986;28;20277;-80
2023/06/24 07:34:25;;;;;;;4.97;3.20;;;22.10;1.00;;;;;;5055222;28;20208;-80
2023/06/24 07:36:51;;;;;;;4.13;2.83;;;22.10;1.00;;;;;;5054077;28;20694;-80
2023/06/24 07:39:17;;;;;;;7.27;3.30;;;22.20;1.00;;;;;;5053759;28;20293;-80
2023/06/24 07:41:43;;;;;;;4.17;3.00;;;22.30;1.00;;;;;;5035563;28;20253;-81
2023/06/24 07:44:09;;;;;;;3.47;2.70;;;22.30;1.00;;;;;;5053573;28;20210;-81
2023/06/24 07:46:35;;;;;;;6.23;3.03;;;22.40;1.00;;;;;;5055231;28;20234;-80
2023/06/24 07:49:00;;;;;;;4.00;2.80;;;22.50;1.00;;;;;;5053894;28;20183;-81
2023/06/24 07:51:27;;;;;;;5.60;3.20;;;22.60;1.00;;;;;;5053941;28;20179;-81
2023/06/24 07:53:53;;;;;;;4.93;3.90;;;22.70;1.00;;;;;;5054910;28;20176;-80
2023/06/24 07:56:19;;;;;;;5.90;2.73;;;22.70;1.00;;;;;;5055431;28;20203;-80
2023/06/24 07:58:44;;;;;;;3.63;2.37;;;22.90;1.00;;;;;;5044398;28;20180;-81
2023/06/24 08:01:10;;;;;;;4.57;2.47;;;22.90;1.00;;;;;;5091069;28;20172;-79
2023/06/24 08:03:38;;;;;;;4.40;2.63;;;23.10;1.00;;;;;;5072515;28;20177;-79
2023/06/24 08:06:05;;;;;;;4.37;3.00;;;23.10;1.00;;;;;;5072958;28;20165;-82
2023/06/24 08:08:31;;;;;;;3.60;2.50;;;23.20;1.00;;;;;;5052432;28;20175;-81
2023/06/24 08:10:56;;;;;;;6.03;3.27;;;23.40;1.00;;;;;;5052569;28;20645;-81
2023/06/24 08:13:22;;;;;;;5.80;2.77;;;23.40;1.00;;;;;;5053536;28;20168;-80
2023/06/24 08:15:48;;;;;;;4.87;2.63;;;23.40;1.00;;;;;;5057463;28;20632;-82
2023/06/24 08:18:14;;;;;;;4.17;2.93;;;23.50;99.90;;;;;;5053845;28;20303;-82
2023/06/24 08:20:39;;;;;;;4.17;3.00;;;23.60;1.00;;;;;;5054911;28;20230;-82
2023/06/24 08:23:05;;;;;;;3.47;2.53;;;23.50;99.90;;;;;;5054704;28;20188;-81
2023/06/24 08:25:31;;;;;;;4.27;2.67;;;23.30;99.90;;;;;;5053213;28;20707;-82
2023/06/24 08:27:56;;;;;;;4.03;2.30;;;23.30;99.90;;;;;;5054412;28;20168;-81
2023/06/24 08:30:22;;;;;;;4.30;2.07;;;23.40;99.90;;;;;;5053929;28;20182;-82
2023/06/24 08:32:48;;;;;;;3.37;2.23;;;23.40;99.90;;;;;;5053029;28;20176;-81
2023/06/24 08:35:14;;;;;;;3.53;2.40;;;23.30;99.90;;;;;;5054879;28;20170;-82
2023/06/24 08:37:40;;;;;;;2.97;2.07;;;23.20;99.90;;;;;;5052976;28;20273;-81
2023/06/24 08:40:06;;;;;;;4.83;2.60;;;23.30;99.90;;;;;;5053140;28;20849;-83
2023/06/24 08:42:32;;;;;;;4.00;2.80;;;23.50;99.90;;;;;;5051305;28;20180;-82
2023/06/24 08:44:58;;;;;;;5.07;4.03;;;23.70;99.90;;;;;;5053963;28;20196;-83
2023/06/24 08:47:24;;;;;;;3.27;2.70;;;23.70;99.90;;;;;;5053688;28;20264;-81
2023/06/24 08:49:57;;;;;;;5.03;2.77;;;23.90;99.90;;;;;;5053250;28;20172;-82
2023/06/24 08:52:29;;;;;;;4.27;2.40;;;24.10;64.90;;;;;;5054113;28;20741;-81
2023/06/24 08:54:57;;;;;;;4.50;2.57;;;24.20;66.60;;;;;;5035057;28;20287;-80
2023/06/24 08:57:23;;;;;;;4.83;2.60;;;24.10;99.90;;;;;;5057848;28;20212;-82
2023/06/24 08:59:50;;;;;;;4.37;2.67;;;23.80;99.90;;;;;;5054382;28;20168;-83
2023/06/24 09:02:16;;;;;;;6.23;3.00;;;23.60;99.90;;;;;;5037434;28;20179;-84
2023/06/24 09:04:42;;;;;;;4.77;2.30;;;23.80;99.90;;;;;;5037175;28;20663;-82
2023/06/24 09:07:08;;;;;;;2.93;2.20;;;23.80;99.90;;;;;;5054689;28;20161;-81
2023/06/24 09:09:43;;;;;;;6.17;2.40;;;23.90;99.90;;;;;;5053082;28;20534;-82
2023/06/24 09:12:11;;;;;;;5.03;2.20;;;24.10;1.00;;;;;;5054928;28;20180;-88
2023/06/24 09:14:37;;;;;;;3.77;2.37;;;24.30;1.00;;;;;;5054111;28;20243;-82
2023/06/24 09:17:03;;;;;;;4.70;2.70;;;24.50;1.00;;;;;;5052823;28;20200;-83
2023/06/24 09:19:29;;;;;;;4.40;2.33;;;24.70;99.90;;;;;;5054534;28;20189;-82
2023/06/24 09:22:06;;;;;;;4.27;2.17;;;24.80;25.30;;;;;;5063060;28;20180;-80
2023/06/24 09:24:33;;;;;;;2.73;1.97;;;24.90;99.90;;;;;;5041103;28;20199;-81
2023/06/24 09:26:59;;;;;;;4.00;2.30;;;24.60;1.00;;;;;;5070232;28;20259;-81
2023/06/24 09:29:32;;;;;;;2.87;1.90;;;24.40;1.00;;;;;;5068000;28;20165;-80
2023/06/24 09:32:01;;;;;;;3.63;2.30;;;24.30;99.90;;;;;;5066120;28;20181;-79
2023/06/24 09:34:28;;;;;;;2.90;2.10;;;24.40;1.00;;;;;;5050867;28;20261;-79
2023/06/24 09:36:58;;;;;;;3.43;2.10;;;24.50;1.00;;;;;;5059558;28;20205;-81
2023/06/24 09:39:28;;;;;;;3.10;2.13;;;24.90;99.90;;;;;;5039525;28;20173;-85
2023/06/24 09:41:59;;;;;;;3.30;1.83;;;25.00;1.00;;;;;;5056516;28;20218;-82
2023/06/24 09:44:28;;;;;;;3.03;2.10;;;25.20;99.90;;;;;;5065533;28;20248;-78
2023/06/24 09:46:55;;;;;;;3.70;1.97;;;25.40;47.50;;;;;;5044525;28;20589;-79
2023/06/24 09:49:23;;;;;;;2.70;2.10;;;25.50;1.00;;;;;;5056136;28;20303;-80
2023/06/24 09:51:54;;;;;;;3.97;2.10;;;25.50;99.90;;;;;;5058108;28;20168;-78
2023/06/24 09:54:21;;;;;;;3.80;2.00;;;25.40;1.00;;;;;;5059764;28;20199;-77
2023/06/24 09:56:49;;;;;;;5.60;2.17;;;25.40;21.70;;;;;;5064787;28;20196;-79
2023/06/24 09:59:19;;;;;;;2.67;1.87;;;25.40;1.00;;;;;;5055690;28;20154;-78
2023/06/24 10:01:48;;;;;;;4.40;1.90;;;25.20;99.90;;;;;;5056412;28;20157;-79
2023/06/24 10:04:19;;;;;;;3.43;1.90;;;25.20;1.00;;;;;;5056577;28;20177;-77
2023/06/24 10:06:45;;;;;;;3.13;1.77;;;25.10;26.50;;;;;;5056357;28;20236;-78
2023/06/24 10:09:13;;;;;;;4.20;2.10;;;25.00;99.90;;;;;;5038489;28;20247;-78
2023/06/24 10:11:39;;;;;;;2.93;1.83;;;25.10;1.00;;;;;;5054642;28;20169;-81
2023/06/24 10:14:05;;;;;;;2.50;1.70;;;25.30;99.90;;;;;;5055521;28;20166;-80
2023/06/24 10:16:31;;;;;;;3.33;1.70;;;25.40;99.90;;;;;;5053245;28;20330;-79
2023/06/24 10:19:03;;;;;;;3.30;1.90;;;25.50;99.90;;;;;;5054446;28;20169;-79
2023/06/24 10:21:47;;;;;;;4.47;1.97;;;24.90;99.90;;;;;;5036898;28;20177;-80
2023/06/24 10:24:13;;;;;;;3.13;1.90;;;25.00;99.90;;;;;;5056176;28;20269;-81
2023/06/24 10:26:40;;;;;;;3.00;1.80;;;25.10;99.90;;;;;;5055897;28;20181;-79
2023/06/24 10:29:06;;;;;;;3.67;2.17;;;25.20;99.90;;;;;;5055274;28;20177;-79
2023/06/24 10:31:40;;;;;;;3.30;1.97;;;25.40;99.90;;;;;;5055364;28;20633;-78
2023/06/24 10:34:24;;;;;;;3.83;1.70;;;25.50;99.90;;;;;;5055198;28;20664;-79
2023/06/24 10:37:04;;;;;;;2.93;1.97;;;25.60;99.90;;;;;;5055780;28;20567;-78
2023/06/24 10:39:52;;;;;;;4.20;2.20;;;25.60;99.90;;;;;;5055384;28;20169;-79
2023/06/24 10:42:30;;;;;;;4.00;2.20;;;25.70;1.00;;;;;;5055180;28;20234;-81
2023/06/24 10:45:00;;;;;;;3.33;2.10;;;25.10;99.90;;;;;;5055800;28;20172;-80
2023/06/24 10:47:27;;;;;;;3.77;2.10;;;25.10;1.00;;;;;;5055586;28;20720;-81
2023/06/24 10:49:53;;;;;;;3.63;2.30;;;25.30;1.00;;;;;;5050562;28;20180;-80
2023/06/24 10:52:21;;;;;;;2.57;1.90;;;25.50;1.00;;;;;;5054981;28;20537;-80
2023/06/24 10:54:47;;;;;;;3.17;2.30;;;25.70;99.90;;;;;;5054214;28;20256;-80
2023/06/24 10:57:14;;;;;;;3.30;2.17;;;25.70;99.90;;;;;;5036600;28;20259;-80
2023/06/24 10:59:41;;;;;;;3.67;2.40;;;25.80;19.80;;;;;;5056402;28;20196;-78
2023/06/24 11:02:15;;;;;;;3.13;2.00;;;25.90;99.90;;;;;;5055186;28;20169;-80
2023/06/24 11:04:49;;;;;;;3.28;2.30;;;26.10;52.80;;;;;;5053486;28;20190;-82
2023/06/24 11:07:16;;;;;;;3.17;2.10;;;26.20;99.90;;;;;;5053429;28;20170;-78
2023/06/24 11:09:47;;;;;;;3.70;2.30;;;26.20;1.00;;;;;;5037091;28;20186;-80
2023/06/24 11:12:13;;;;;;;3.50;2.33;;;26.20;1.00;;;;;;5054992;28;20215;-80
2023/06/24 11:14:40;;;;;;;3.40;2.20;;;26.20;99.90;;;;;;5054760;28;20637;-79
2023/06/24 11:17:06;;;;;;;2.87;1.93;;;26.20;1.00;;;;;;5037021;28;20568;-80
2023/06/24 11:19:32;;;;;;;2.93;1.90;;;26.00;99.90;;;;;;5055501;28;20173;-79
2023/06/24 11:22:01;;;;;;;4.00;2.03;;;25.80;1.00;;;;;;5054303;28;20176;-78
2023/06/24 11:24:29;;;;;;;2.27;1.80;;;25.40;99.90;;;;;;5054979;28;20169;-79
2023/06/24 11:26:56;;;;;;;3.27;1.93;;;25.20;1.00;;;;;;5054867;28;20226;-78
2023/06/24 11:29:22;;;;;;;3.83;1.90;;;25.20;99.90;;;;;;5053710;28;20169;-76
2023/06/24 11:31:49;;;;;;;2.73;2.10;;;25.30;99.90;;;;;;5053965;28;20633;-77
2023/06/24 11:34:15;;;;;;;2.70;1.80;;;25.30;1.00;;;;;;5051864;28;20213;-75
2023/06/24 11:36:41;;;;;;;3.43;2.30;;;25.50;1.00;;;;;;5053524;28;20236;-77
2023/06/24 11:39:07;;;;;;;4.00;2.20;;;25.70;1.00;;;;;;5053934;28;20211;-78
2023/06/24 11:41:32;;;;;;;2.73;1.93;;;25.90;99.90;;;;;;5036554;28;20617;-81
2023/06/24 11:43:59;;;;;;;3.43;1.80;;;26.10;1.00;;;;;;5035682;28;20184;-77
2023/06/24 11:46:25;;;;;;;3.83;1.80;;;26.20;99.90;;;;;;5053565;28;20187;-80
2023/06/24 11:48:52;;;;;;;4.73;2.20;;;26.10;1.00;;;;;;5053126;28;20176;-76
2023/06/24 11:51:17;;;;;;;2.93;1.93;;;26.10;48.00;;;;;;5053451;28;20238;-78
2023/06/24 11:53:45;;;;;;;2.37;1.73;;;26.10;1.00;;;;;;5064249;28;20186;-85
2023/06/24 11:56:14;;;;;;;2.80;1.90;;;26.20;1.00;;;;;;5060088;28;20219;-89
2023/06/24 11:58:44;;;;;;;4.03;2.10;;;26.30;99.90;;;;;;5058026;28;20191;-84
2023/06/24 12:01:31;;;;;;;4.00;2.47;;;26.30;99.90;;;;;;5071943;28;20168;-87
2023/06/24 12:04:01;;;;;;;4.50;2.07;;;26.40;1.00;;;;;;5060807;28;20180;-84
2023/06/24 12:06:33;;;;;;;4.00;2.37;;;26.50;99.90;;;;;;5056443;28;20167;-86
2023/06/24 12:08:59;;;;;;;3.93;3.23;;;26.50;1.00;;;;;;5060451;28;20175;-86
2023/06/24 12:11:25;;;;;;;2.90;2.17;;;26.40;99.90;;;;;;5059003;28;20288;-86
2023/06/24 12:13:50;;;;;;;3.73;2.67;;;26.30;99.90;;;;;;5041247;28;20190;-87
2023/06/24 12:16:16;;;;;;;2.93;2.13;;;26.30;99.90;;;;;;5042011;28;20208;-89
2023/06/24 12:18:42;;;;;;;3.40;2.30;;;26.40;1.00;;;;;;5062592;28;20183;-88
2023/06/24 12:21:10;;;;;;;2.20;1.87;;;26.50;99.90;;;;;;5063184;28;20236;-86
2023/06/24 12:23:35;;;;;;;2.87;1.80;;;26.50;99.90;;;;;;5063814;28;20663;-88
2023/06/24 12:26:01;;;;;;;3.30;2.00;;;26.40;53.90;;;;;;5045300;28;20196;-89
2023/06/24 12:28:28;;;;;;;3.00;2.03;;;26.50;1.00;;;;;;5061854;28;20161;-87
2023/06/24 12:30:53;;;;;;;3.10;2.30;;;26.50;1.00;;;;;;5060623;28;20690;-88
2023/06/24 12:33:20;;;;;;;3.63;2.40;;;26.70;96.30;;;;;;5059199;28;20180;-83
2023/06/24 12:35:46;;;;;;;3.28;2.03;;;26.80;18.70;;;;;;5040266;28;20659;-87
2023/06/24 12:38:12;;;;;;;3.33;2.30;;;27.00;1.00;;;;;;5041934;28;20208;-85
2023/06/24 12:40:37;;;;;;;3.67;2.03;;;26.90;38.00;;;;;;5058873;28;20163;-85
2023/06/24 12:43:04;;;;;;;3.95;2.05;;;26.90;1.00;;;;;;5060686;28;20176;-84
2023/06/24 12:45:31;;;;;;;2.97;2.10;;;26.60;99.90;;;;;;5062300;28;20161;-87
2023/06/24 12:47:57;;;;;;;4.60;2.30;;;26.60;1.00;;;;;;5058704;28;20177;-87
2023/06/24 12:50:22;;;;;;;2.58;1.90;;;26.60;99.90;;;;;;5067472;28;20173;-82
2023/06/24 12:52:48;;;;;;;3.97;2.33;;;26.80;99.90;;;;;;5057748;28;20181;-85
2023/06/24 12:55:14;;;;;;;3.10;2.10;;;26.80;1.00;;;;;;5060061;28;20200;-88
2023/06/24 12:57:40;;;;;;;5.35;2.30;;;26.90;1.00;;;;;;5059154;28;20204;-88